Kanazawa — JD3990 — position and weather

sailwx.info

Track history (hours):
 
Tides and Currents Weather Stations Pressure Air Temp Water Temp Dewpoint Dewpoint Depression Visibility Wind Speed Wind Dir Waves Ship Positions

Kanazawa

Last reported at 2018-Jun-18 17:27 UTC. Time now 2018-Jun-18 17:37 UTC.
Position N 35°31' E 139°45'.

Length 75 m; draft 4 m.

Type: Cargo ship. MMSI: 431007657.

Date/timePositionNaut miles runAvg speedWind from/ knotsBaromVisibWave heightAir tempDewpointWater temp
2018-Jun-18 17:27N 35°31' E 139°45'0 0.0
2018-Jun-18 16:57N 35°31' E 139°45'0 0.0
2018-Jun-18 16:30N 35°31' E 139°45'0 0.0
2018-Jun-18 15:57N 35°31' E 139°45'0 0.0
2018-Jun-18 15:15N 35°31' E 139°45'0 0.0
2018-Jun-18 14:57N 35°31' E 139°45'0 0.0
2018-Jun-18 14:21N 35°31' E 139°45'0 0.0
2018-Jun-18 13:57N 35°31' E 139°45'0 0.0
2018-Jun-18 13:27N 35°31' E 139°45'0 0.0
2018-Jun-18 12:57N 35°31' E 139°45'0 0.0
2018-Jun-18 12:27N 35°31' E 139°45'0 0.0
2018-Jun-18 11:57N 35°31' E 139°45'0 0.0
2018-Jun-18 11:21N 35°31' E 139°45'0 0.0
2018-Jun-18 10:57N 35°31' E 139°45'0 0.0
2018-Jun-18 10:27N 35°31' E 139°45'0 0.0
2018-Jun-18 09:51N 35°31' E 139°45'0 0.0
2018-Jun-18 09:03N 35°31' E 139°45'0 0.0
2018-Jun-18 08:57N 35°31' E 139°45'0 0.0
2018-Jun-18 08:27N 35°31' E 139°45'0 0.0
2018-Jun-18 07:57N 35°31' E 139°45'0 0.0
2018-Jun-18 07:27N 35°31' E 139°45'0 0.0
2018-Jun-18 06:57N 35°31' E 139°45'0 0.0
2018-Jun-18 06:27N 35°31' E 139°45'0 0.0
2018-Jun-18 05:57N 35°31' E 139°45'0 0.0
2018-Jun-18 05:27N 35°31' E 139°45'0 0.0
2018-Jun-18 04:57N 35°31' E 139°45'0 0.0
2018-Jun-18 04:30N 35°31' E 139°45'0 0.0
2018-Jun-18 04:00N 35°31' E 139°45'0 0.0
2018-Jun-18 03:30N 35°31' E 139°45'0 0.0
2018-Jun-18 03:00N 35°31' E 139°45'0 0.0
2018-Jun-18 02:27N 35°31' E 139°45'0 0.0
2018-Jun-18 02:00N 35°31' E 139°45'2 4.8
2018-Jun-18 01:30N 35°30' E 139°48'2 3.7
2018-Jun-18 01:00N 35°29' E 139°46'0 0.0
2018-Jun-18 00:30N 35°29' E 139°46'0 0.0
2018-Jun-18 00:00N 35°29' E 139°46'0 0.1
2018-Jun-17 23:30N 35°29' E 139°46'0 0.0
2018-Jun-17 23:00N 35°29' E 139°46'0 0.0
2018-Jun-17 22:30N 35°29' E 139°46'0 0.0
2018-Jun-17 21:57N 35°29' E 139°46'0 0.0
2018-Jun-17 21:30N 35°29' E 139°46'0 0.0
2018-Jun-17 21:00N 35°29' E 139°46'0 0.0
2018-Jun-17 20:30N 35°29' E 139°46'0 0.0
2018-Jun-17 20:00N 35°29' E 139°46'0 0.0
2018-Jun-17 19:30N 35°29' E 139°46'0 0.0
2018-Jun-17 18:54N 35°29' E 139°46'0 0.0
2018-Jun-17 18:30N 35°29' E 139°46'0 0.1
2018-Jun-17 18:00N 35°29' E 139°46'0 0.0
2018-Jun-17 17:30N 35°29' E 139°46'0 0.0
2018-Jun-17 17:00N 35°29' E 139°46'0 0.1
2018-Jun-17 16:30N 35°29' E 139°46'3 6.7
2018-Jun-17 16:00N 35°25' E 139°46'612.5
2018-Jun-17 15:31N 35°19' E 139°44'611.6
2018-Jun-17 15:00N 35°14' E 139°47'812.8
2018-Jun-17 14:21N 35°06' E 139°46'  
2018-Jun-13 07:59N 35°05' E 139°44'612.3
2018-Jun-13 07:30N 35°11' E 139°46'611.6
2018-Jun-13 07:00N 35°17' E 139°45'611.6
2018-Jun-13 06:30N 35°22' E 139°42'611.7
2018-Jun-13 06:01N 35°27' E 139°46'612.3
2018-Jun-13 05:30N 35°32' E 139°50'611.2
2018-Jun-13 05:00N 35°37' E 139°46'2 0.1
2018-Jun-12 14:37N 35°39' E 139°46'1 4.2
2018-Jun-12 14:27N 35°38' E 139°46'511.6
2018-Jun-12 14:00N 35°34' E 139°50'5 9.9
2018-Jun-12 13:30N 35°29' E 139°51'611.7
2018-Jun-12 13:00N 35°25' E 139°47'611.6
2018-Jun-12 12:30N 35°19' E 139°44'611.0
2018-Jun-12 12:00N 35°14' E 139°47'  
2018-Jun-09 19:13N 33°44' E 135°09'312.6
2018-Jun-09 19:00N 33°46' E 135°07'612.6
2018-Jun-09 18:31N 33°51' E 135°02'612.1
2018-Jun-09 18:01N 33°55' E 134°57'612.1
2018-Jun-09 17:31N 33°60' E 134°52'612.0
2018-Jun-09 17:00N 34°04' E 134°47'612.3
2018-Jun-09 16:29N 34°09' E 134°43'1111.6
2018-Jun-09 15:34N 34°17' E 134°34'111.7
2018-Jun-09 15:28N 34°17' E 134°32'1211.5
2018-Jun-09 14:27N 34°22' E 134°19'  
Track history (hours):
 
Tides and Currents Weather Stations Pressure Air Temp Water Temp Dewpoint Dewpoint Depression Visibility Wind Speed Wind Dir Waves Ship Positions

Kanazawa

Last reported at 2018-Jun-18 17:27 UTC. Time now 2018-Jun-18 17:37 UTC.
Position N 35°31' E 139°45'.

Length 75 m; draft 4 m.

Type: Cargo ship. MMSI: 431007657.

Date/timePositionNaut miles runAvg speedWind from/ knotsBaromVisibWave heightAir tempDewpointWater temp
2018-Jun-18 17:27N 35°31' E 139°45'0 0.0
2018-Jun-18 16:57N 35°31' E 139°45'0 0.0
2018-Jun-18 16:30N 35°31' E 139°45'0 0.0
2018-Jun-18 15:57N 35°31' E 139°45'0 0.0
2018-Jun-18 15:15N 35°31' E 139°45'0 0.0
2018-Jun-18 14:57N 35°31' E 139°45'0 0.0
2018-Jun-18 14:21N 35°31' E 139°45'0 0.0
2018-Jun-18 13:57N 35°31' E 139°45'0 0.0
2018-Jun-18 13:27N 35°31' E 139°45'0 0.0
2018-Jun-18 12:57N 35°31' E 139°45'0 0.0
2018-Jun-18 12:27N 35°31' E 139°45'0 0.0
2018-Jun-18 11:57N 35°31' E 139°45'0 0.0
2018-Jun-18 11:21N 35°31' E 139°45'0 0.0
2018-Jun-18 10:57N 35°31' E 139°45'0 0.0
2018-Jun-18 10:27N 35°31' E 139°45'0 0.0
2018-Jun-18 09:51N 35°31' E 139°45'0 0.0
2018-Jun-18 09:03N 35°31' E 139°45'0 0.0
2018-Jun-18 08:57N 35°31' E 139°45'0 0.0
2018-Jun-18 08:27N 35°31' E 139°45'0 0.0
2018-Jun-18 07:57N 35°31' E 139°45'0 0.0
2018-Jun-18 07:27N 35°31' E 139°45'0 0.0
2018-Jun-18 06:57N 35°31' E 139°45'0 0.0
2018-Jun-18 06:27N 35°31' E 139°45'0 0.0
2018-Jun-18 05:57N 35°31' E 139°45'0 0.0
2018-Jun-18 05:27N 35°31' E 139°45'0 0.0
2018-Jun-18 04:57N 35°31' E 139°45'0 0.0
2018-Jun-18 04:30N 35°31' E 139°45'0 0.0
2018-Jun-18 04:00N 35°31' E 139°45'0 0.0
2018-Jun-18 03:30N 35°31' E 139°45'0 0.0
2018-Jun-18 03:00N 35°31' E 139°45'0 0.0
2018-Jun-18 02:27N 35°31' E 139°45'0 0.0
2018-Jun-18 02:00N 35°31' E 139°45'2 4.8
2018-Jun-18 01:30N 35°30' E 139°48'2 3.7
2018-Jun-18 01:00N 35°29' E 139°46'0 0.0
2018-Jun-18 00:30N 35°29' E 139°46'0 0.0
2018-Jun-18 00:00N 35°29' E 139°46'0 0.1
2018-Jun-17 23:30N 35°29' E 139°46'0 0.0
2018-Jun-17 23:00N 35°29' E 139°46'0 0.0
2018-Jun-17 22:30N 35°29' E 139°46'0 0.0
2018-Jun-17 21:57N 35°29' E 139°46'0 0.0
2018-Jun-17 21:30N 35°29' E 139°46'0 0.0
2018-Jun-17 21:00N 35°29' E 139°46'0 0.0
2018-Jun-17 20:30N 35°29' E 139°46'0 0.0
2018-Jun-17 20:00N 35°29' E 139°46'0 0.0
2018-Jun-17 19:30N 35°29' E 139°46'0 0.0
2018-Jun-17 18:54N 35°29' E 139°46'0 0.0
2018-Jun-17 18:30N 35°29' E 139°46'0 0.1
2018-Jun-17 18:00N 35°29' E 139°46'0 0.0
2018-Jun-17 17:30N 35°29' E 139°46'0 0.0
2018-Jun-17 17:00N 35°29' E 139°46'0 0.1
2018-Jun-17 16:30N 35°29' E 139°46'3 6.7
2018-Jun-17 16:00N 35°25' E 139°46'612.5
2018-Jun-17 15:31N 35°19' E 139°44'611.6
2018-Jun-17 15:00N 35°14' E 139°47'812.8
2018-Jun-17 14:21N 35°06' E 139°46'  
2018-Jun-13 07:59N 35°05' E 139°44'612.3
2018-Jun-13 07:30N 35°11' E 139°46'611.6
2018-Jun-13 07:00N 35°17' E 139°45'611.6
2018-Jun-13 06:30N 35°22' E 139°42'611.7
2018-Jun-13 06:01N 35°27' E 139°46'612.3
2018-Jun-13 05:30N 35°32' E 139°50'611.2
2018-Jun-13 05:00N 35°37' E 139°46'2 0.1
2018-Jun-12 14:37N 35°39' E 139°46'1 4.2
2018-Jun-12 14:27N 35°38' E 139°46'511.6
2018-Jun-12 14:00N 35°34' E 139°50'5 9.9
2018-Jun-12 13:30N 35°29' E 139°51'611.7
2018-Jun-12 13:00N 35°25' E 139°47'611.6
2018-Jun-12 12:30N 35°19' E 139°44'611.0
2018-Jun-12 12:00N 35°14' E 139°47'  
2018-Jun-09 19:13N 33°44' E 135°09'312.6
2018-Jun-09 19:00N 33°46' E 135°07'612.6
2018-Jun-09 18:31N 33°51' E 135°02'612.1
2018-Jun-09 18:01N 33°55' E 134°57'612.1
2018-Jun-09 17:31N 33°60' E 134°52'612.0
2018-Jun-09 17:00N 34°04' E 134°47'612.3
2018-Jun-09 16:29N 34°09' E 134°43'1111.6
2018-Jun-09 15:34N 34°17' E 134°34'111.7
2018-Jun-09 15:28N 34°17' E 134°32'1211.5
2018-Jun-09 14:27N 34°22' E 134°19'  

Dump ship's entire track history